sensor_id;sensor_type;location;lat;lon;timestamp;pressure;altitude;pressure_sealevel;temperature;humidity
17772;BME280;9010;32.624;-96.938;2022-07-18T00:00:13;98586.69;;;37.90;33.60
17772;BME280;9010;32.624;-96.938;2022-07-18T00:02:44;98580.94;;;37.97;33.47
17772;BME280;9010;32.624;-96.938;2022-07-18T00:05:12;98570.72;;;37.87;33.56
17772;BME280;9010;32.624;-96.938;2022-07-18T00:07:41;98577.06;;;37.83;33.25
17772;BME280;9010;32.624;-96.938;2022-07-18T00:10:10;98572.09;;;37.75;34.37
17772;BME280;9010;32.624;-96.938;2022-07-18T00:12:39;98569.88;;;37.67;34.80
17772;BME280;9010;32.624;-96.938;2022-07-18T00:15:09;98569.31;;;37.55;34.48
17772;BME280;9010;32.624;-96.938;2022-07-18T00:17:38;98568.47;;;37.49;34.31
17772;BME280;9010;32.624;-96.938;2022-07-18T00:20:12;98566.28;;;37.51;34.34
17772;BME280;9010;32.624;-96.938;2022-07-18T00:22:40;98557.13;;;37.35;35.70
17772;BME280;9010;32.624;-96.938;2022-07-18T00:25:09;98571.13;;;37.34;35.72
17772;BME280;9010;32.624;-96.938;2022-07-18T00:27:38;98568.72;;;37.42;33.97
17772;BME280;9010;32.624;-96.938;2022-07-18T00:30:08;98571.69;;;37.36;34.68
17772;BME280;9010;32.624;-96.938;2022-07-18T00:32:38;98576.38;;;37.40;35.12
17772;BME280;9010;32.624;-96.938;2022-07-18T00:35:07;98569.56;;;37.43;33.89
17772;BME280;9010;32.624;-96.938;2022-07-18T00:37:38;98579.16;;;37.46;33.86
17772;BME280;9010;32.624;-96.938;2022-07-18T00:40:07;98581.81;;;37.30;35.35
17772;BME280;9010;32.624;-96.938;2022-07-18T00:42:36;98578.50;;;37.23;35.03
17772;BME280;9010;32.624;-96.938;2022-07-18T00:45:06;98575.16;;;37.16;35.35
17772;BME280;9010;32.624;-96.938;2022-07-18T00:47:35;98571.28;;;37.07;35.48
17772;BME280;9010;32.624;-96.938;2022-07-18T00:50:04;98570.09;;;36.93;35.64
17772;BME280;9010;32.624;-96.938;2022-07-18T00:52:33;98583.53;;;36.95;36.19
17772;BME280;9010;32.624;-96.938;2022-07-18T00:55:05;98576.09;;;36.90;36.20
17772;BME280;9010;32.624;-96.938;2022-07-18T00:57:34;98581.03;;;36.88;35.47
17772;BME280;9010;32.624;-96.938;2022-07-18T01:00:05;98571.72;;;36.84;35.93
17772;BME280;9010;32.624;-96.938;2022-07-18T01:02:50;98581.78;;;36.73;36.29
17772;BME280;9010;32.624;-96.938;2022-07-18T01:05:19;98578.16;;;36.68;35.89
17772;BME280;9010;32.624;-96.938;2022-07-18T01:07:48;98574.84;;;36.61;36.85
17772;BME280;9010;32.624;-96.938;2022-07-18T01:10:19;98581.97;;;36.62;35.98
17772;BME280;9010;32.624;-96.938;2022-07-18T01:12:49;98580.00;;;36.52;36.53
17772;BME280;9010;32.624;-96.938;2022-07-18T01:15:18;98581.53;;;36.43;36.13
17772;BME280;9010;32.624;-96.938;2022-07-18T01:17:47;98581.75;;;36.37;36.51
17772;BME280;9010;32.624;-96.938;2022-07-18T01:20:15;98586.66;;;36.29;36.29
17772;BME280;9010;32.624;-96.938;2022-07-18T01:22:46;98589.31;;;36.24;36.49
17772;BME280;9010;32.624;-96.938;2022-07-18T01:25:15;98588.72;;;36.17;36.41
17772;BME280;9010;32.624;-96.938;2022-07-18T01:27:43;98592.53;;;36.16;36.85
17772;BME280;9010;32.624;-96.938;2022-07-18T01:30:12;98591.66;;;36.11;37.89
17772;BME280;9010;32.624;-96.938;2022-07-18T01:32:41;98596.28;;;36.05;38.03
17772;BME280;9010;32.624;-96.938;2022-07-18T01:35:10;98586.56;;;35.93;37.34
17772;BME280;9010;32.624;-96.938;2022-07-18T01:37:40;98598.28;;;35.88;37.55
17772;BME280;9010;32.624;-96.938;2022-07-18T01:40:11;98589.47;;;35.81;37.77
17772;BME280;9010;32.624;-96.938;2022-07-18T01:42:40;98591.00;;;35.72;38.60
17772;BME280;9010;32.624;-96.938;2022-07-18T01:45:10;98595.31;;;35.68;38.66
17772;BME280;9010;32.624;-96.938;2022-07-18T01:47:39;98605.16;;;35.64;38.20
17772;BME280;9010;32.624;-96.938;2022-07-18T01:50:09;98611.44;;;35.64;38.40
17772;BME280;9010;32.624;-96.938;2022-07-18T01:52:38;98602.88;;;35.56;39.48
17772;BME280;9010;32.624;-96.938;2022-07-18T01:55:10;98603.53;;;35.46;38.89
17772;BME280;9010;32.624;-96.938;2022-07-18T01:57:39;98606.84;;;35.48;39.27
17772;BME280;9010;32.624;-96.938;2022-07-18T02:00:10;98605.13;;;35.42;38.94
17772;BME280;9010;32.624;-96.938;2022-07-18T02:02:39;98609.28;;;35.45;38.31
17772;BME280;9010;32.624;-96.938;2022-07-18T02:05:08;98608.06;;;35.36;40.76
17772;BME280;9010;32.624;-96.938;2022-07-18T02:07:40;98618.34;;;35.29;40.23
17772;BME280;9010;32.624;-96.938;2022-07-18T02:10:13;98612.78;;;35.18;40.08
17772;BME280;9010;32.624;-96.938;2022-07-18T02:12:44;98613.22;;;35.10;39.74
17772;BME280;9010;32.624;-96.938;2022-07-18T02:15:14;98605.66;;;35.01;40.36
17772;BME280;9010;32.624;-96.938;2022-07-18T02:17:44;98610.50;;;34.94;41.16
17772;BME280;9010;32.624;-96.938;2022-07-18T02:20:13;98613.34;;;34.82;41.92
17772;BME280;9010;32.624;-96.938;2022-07-18T02:22:42;98621.94;;;34.74;43.93
17772;BME280;9010;32.624;-96.938;2022-07-18T02:25:13;98614.50;;;34.70;41.51
17772;BME280;9010;32.624;-96.938;2022-07-18T02:27:42;98618.00;;;34.65;42.88
17772;BME280;9010;32.624;-96.938;2022-07-18T02:30:11;98618.00;;;34.65;42.95
17772;BME280;9010;32.624;-96.938;2022-07-18T02:32:40;98628.94;;;34.65;41.14
17772;BME280;9010;32.624;-96.938;2022-07-18T02:35:10;98628.25;;;34.58;42.41
17772;BME280;9010;32.624;-96.938;2022-07-18T02:37:38;98622.91;;;34.51;42.66
17772;BME280;9010;32.624;-96.938;2022-07-18T02:40:09;98625.56;;;34.46;43.42
17772;BME280;9010;32.624;-96.938;2022-07-18T02:42:40;98633.19;;;34.44;42.45
17772;BME280;9010;32.624;-96.938;2022-07-18T02:45:10;98636.69;;;34.40;42.91
17772;BME280;9010;32.624;-96.938;2022-07-18T02:47:42;98640.97;;;34.36;43.88
17772;BME280;9010;32.624;-96.938;2022-07-18T02:50:11;98637.56;;;34.29;49.06
17772;BME280;9010;32.624;-96.938;2022-07-18T02:52:40;98639.16;;;34.25;43.96
17772;BME280;9010;32.624;-96.938;2022-07-18T02:55:10;98642.38;;;34.22;44.97
17772;BME280;9010;32.624;-96.938;2022-07-18T02:57:42;98644.03;;;34.23;43.89
17772;BME280;9010;32.624;-96.938;2022-07-18T03:00:12;98646.56;;;34.13;42.74
17772;BME280;9010;32.624;-96.938;2022-07-18T03:02:42;98645.72;;;34.12;43.90
17772;BME280;9010;32.624;-96.938;2022-07-18T03:05:13;98647.06;;;34.09;44.21
17772;BME280;9010;32.624;-96.938;2022-07-18T03:07:42;98658.13;;;34.03;44.67
17772;BME280;9010;32.624;-96.938;2022-07-18T03:10:11;98662.41;;;33.99;44.65
17772;BME280;9010;32.624;-96.938;2022-07-18T03:12:42;98671.19;;;33.89;45.91
17772;BME280;9010;32.624;-96.938;2022-07-18T03:15:11;98671.69;;;33.86;46.49
17772;BME280;9010;32.624;-96.938;2022-07-18T03:17:41;98669.44;;;33.83;45.02
17772;BME280;9010;32.624;-96.938;2022-07-18T03:20:11;98675.41;;;33.80;44.96
17772;BME280;9010;32.624;-96.938;2022-07-18T03:22:40;98674.22;;;33.76;44.49
17772;BME280;9010;32.624;-96.938;2022-07-18T03:25:08;98680.75;;;33.75;44.92
17772;BME280;9010;32.624;-96.938;2022-07-18T03:27:39;98682.81;;;33.68;45.96
17772;BME280;9010;32.624;-96.938;2022-07-18T03:30:11;98680.56;;;33.65;45.98
17772;BME280;9010;32.624;-96.938;2022-07-18T03:32:39;98678.78;;;33.59;45.83
17772;BME280;9010;32.624;-96.938;2022-07-18T03:35:08;98688.88;;;33.59;45.76
17772;BME280;9010;32.624;-96.938;2022-07-18T03:37:38;98684.69;;;33.56;45.83
17772;BME280;9010;32.624;-96.938;2022-07-18T03:40:07;98686.59;;;33.55;46.54
17772;BME280;9010;32.624;-96.938;2022-07-18T03:42:37;98681.50;;;33.47;47.57
17772;BME280;9010;32.624;-96.938;2022-07-18T03:45:07;98682.81;;;33.45;46.96
17772;BME280;9010;32.624;-96.938;2022-07-18T03:47:37;98685.78;;;33.43;47.06
17772;BME280;9010;32.624;-96.938;2022-07-18T03:50:07;98686.28;;;33.40;45.56
17772;BME280;9010;32.624;-96.938;2022-07-18T03:52:36;98696.84;;;33.37;48.28
17772;BME280;9010;32.624;-96.938;2022-07-18T03:55:06;98691.16;;;33.27;48.38
17772;BME280;9010;32.624;-96.938;2022-07-18T03:57:34;98691.97;;;33.27;48.00
17772;BME280;9010;32.624;-96.938;2022-07-18T04:00:04;98691.16;;;33.27;46.74
17772;BME280;9010;32.624;-96.938;2022-07-18T04:02:39;98696.59;;;33.27;45.98
17772;BME280;9010;32.624;-96.938;2022-07-18T04:05:09;98695.44;;;33.23;45.36
17772;BME280;9010;32.624;-96.938;2022-07-18T04:07:38;98707.97;;;33.24;46.54
17772;BME280;9010;32.624;-96.938;2022-07-18T04:10:07;98699.00;;;33.23;45.69
17772;BME280;9010;32.624;-96.938;2022-07-18T04:12:45;98703.50;;;33.18;46.04
17772;BME280;9010;32.624;-96.938;2022-07-18T04:15:13;98707.88;;;33.19;46.22
17772;BME280;9010;32.624;-96.938;2022-07-18T04:17:44;98706.69;;;33.15;46.82
17772;BME280;9010;32.624;-96.938;2022-07-18T04:20:13;98699.00;;;33.12;46.04
17772;BME280;9010;32.624;-96.938;2022-07-18T04:22:45;98707.19;;;33.12;46.77
17772;BME280;9010;32.624;-96.938;2022-07-18T04:25:14;98700.31;;;33.09;46.55
17772;BME280;9010;32.624;-96.938;2022-07-18T04:27:43;98703.69;;;33.05;45.48
17772;BME280;9010;32.624;-96.938;2022-07-18T04:30:12;98696.59;;;33.04;45.80
17772;BME280;9010;32.624;-96.938;2022-07-18T04:32:41;98701.34;;;32.96;47.41
17772;BME280;9010;32.624;-96.938;2022-07-18T04:35:12;98704.63;;;32.98;46.70
17772;BME280;9010;32.624;-96.938;2022-07-18T04:37:41;98707.03;;;32.95;47.49
17772;BME280;9010;32.624;-96.938;2022-07-18T04:40:11;98702.75;;;32.87;47.90
17772;BME280;9010;32.624;-96.938;2022-07-18T04:42:39;98707.13;;;32.88;47.10
17772;BME280;9010;32.624;-96.938;2022-07-18T04:45:09;98709.97;;;32.82;47.52
17772;BME280;9010;32.624;-96.938;2022-07-18T04:47:40;98689.00;;;32.71;46.52
17772;BME280;9010;32.624;-96.938;2022-07-18T04:50:11;98706.88;;;32.78;46.91
17772;BME280;9010;32.624;-96.938;2022-07-18T04:52:41;98704.53;;;32.82;46.78
17772;BME280;9010;32.624;-96.938;2022-07-18T04:55:11;98700.84;;;32.76;48.14
17772;BME280;9010;32.624;-96.938;2022-07-18T04:57:40;98709.94;;;32.70;47.30
17772;BME280;9010;32.624;-96.938;2022-07-18T05:00:11;98717.19;;;32.76;45.87
17772;BME280;9010;32.624;-96.938;2022-07-18T05:02:41;98710.44;;;32.79;48.64
17772;BME280;9010;32.624;-96.938;2022-07-18T05:05:14;98692.56;;;32.71;47.62
17772;BME280;9010;32.624;-96.938;2022-07-18T05:07:43;98705.81;;;32.79;46.18
17772;BME280;9010;32.624;-96.938;2022-07-18T05:10:14;98692.19;;;32.68;47.62
17772;BME280;9010;32.624;-96.938;2022-07-18T05:12:46;98696.81;;;32.67;47.02
17772;BME280;9010;32.624;-96.938;2022-07-18T05:15:16;98698.47;;;32.68;46.17
17772;BME280;9010;32.624;-96.938;2022-07-18T05:17:45;98692.56;;;32.71;46.96
17772;BME280;9010;32.624;-96.938;2022-07-18T05:20:17;98686.88;;;32.73;47.21
17772;BME280;9010;32.624;-96.938;2022-07-18T05:22:46;98678.84;;;32.66;47.62
17772;BME280;9010;32.624;-96.938;2022-07-18T05:25:15;98675.50;;;32.64;47.27
17772;BME280;9010;32.624;-96.938;2022-07-18T05:27:43;98675.97;;;32.61;47.39
17772;BME280;9010;32.624;-96.938;2022-07-18T05:30:13;98680.22;;;32.57;47.89
17772;BME280;9010;32.624;-96.938;2022-07-18T05:32:43;98674.78;;;32.57;48.17
17772;BME280;9010;32.624;-96.938;2022-07-18T05:35:12;98668.28;;;32.58;47.03
17772;BME280;9010;32.624;-96.938;2022-07-18T05:37:43;98667.69;;;32.56;49.51
17772;BME280;9010;32.624;-96.938;2022-07-18T05:40:13;98673.69;;;32.47;48.97
17772;BME280;9010;32.624;-96.938;2022-07-18T05:42:42;98654.72;;;32.40;49.38
17772;BME280;9010;32.624;-96.938;2022-07-18T05:45:12;98657.66;;;32.38;49.65
17772;BME280;9010;32.624;-96.938;2022-07-18T05:47:40;98661.69;;;32.36;47.53
17772;BME280;9010;32.624;-96.938;2022-07-18T05:50:09;98654.16;;;32.38;48.52
17772;BME280;9010;32.624;-96.938;2022-07-18T05:52:38;98655.19;;;32.37;46.68
17772;BME280;9010;32.624;-96.938;2022-07-18T05:55:09;98644.44;;;32.42;47.21
17772;BME280;9010;32.624;-96.938;2022-07-18T05:57:38;98653.03;;;32.27;50.76
17772;BME280;9010;32.624;-96.938;2022-07-18T06:00:08;98648.88;;;32.25;47.93
17772;BME280;9010;32.624;-96.938;2022-07-18T06:02:37;98652.81;;;32.29;46.77
17772;BME280;9010;32.624;-96.938;2022-07-18T06:05:07;98651.72;;;32.30;47.75
17772;BME280;9010;32.624;-96.938;2022-07-18T06:07:36;98658.47;;;32.27;49.40
17772;BME280;9010;32.624;-96.938;2022-07-18T06:10:07;98655.16;;;32.25;48.53
17772;BME280;9010;32.624;-96.938;2022-07-18T06:12:36;98651.63;;;32.25;48.38
17772;BME280;9010;32.624;-96.938;2022-07-18T06:15:06;98648.44;;;32.28;49.25
17772;BME280;9010;32.624;-96.938;2022-07-18T06:17:36;98640.16;;;32.23;48.09
17772;BME280;9010;32.624;-96.938;2022-07-18T06:20:05;98645.56;;;32.11;48.96
17772;BME280;9010;32.624;-96.938;2022-07-18T06:22:34;98649.09;;;32.12;49.50
17772;BME280;9010;32.624;-96.938;2022-07-18T06:25:03;98651.59;;;32.13;47.38
17772;BME280;9010;32.624;-96.938;2022-07-18T06:27:34;98642.84;;;32.11;49.66
17772;BME280;9010;32.624;-96.938;2022-07-18T06:30:03;98642.47;;;32.08;47.57
17772;BME280;9010;32.624;-96.938;2022-07-18T06:32:32;98647.91;;;32.08;47.01
17772;BME280;9010;32.624;-96.938;2022-07-18T06:35:01;98636.81;;;32.09;47.10
17772;BME280;9010;32.624;-96.938;2022-07-18T06:37:31;98645.94;;;32.15;48.46
17772;BME280;9010;32.624;-96.938;2022-07-18T06:39:59;98657.72;;;32.09;48.16
17772;BME280;9010;32.624;-96.938;2022-07-18T06:42:27;98656.38;;;32.00;52.93
17772;BME280;9010;32.624;-96.938;2022-07-18T06:44:57;98655.19;;;31.96;51.61
17772;BME280;9010;32.624;-96.938;2022-07-18T06:47:25;98662.25;;;31.97;52.66
17772;BME280;9010;32.624;-96.938;2022-07-18T06:49:54;98647.78;;;31.84;55.84
17772;BME280;9010;32.624;-96.938;2022-07-18T06:52:22;98659.31;;;31.98;49.28
17772;BME280;9010;32.624;-96.938;2022-07-18T06:54:50;98655.03;;;31.91;50.18
17772;BME280;9010;32.624;-96.938;2022-07-18T06:57:19;98660.91;;;31.87;54.96
17772;BME280;9010;32.624;-96.938;2022-07-18T07:00:06;98667.97;;;31.77;54.39
17772;BME280;9010;32.624;-96.938;2022-07-18T07:02:39;98666.06;;;31.96;50.09
17772;BME280;9010;32.624;-96.938;2022-07-18T07:05:09;98666.97;;;31.90;51.66
17772;BME280;9010;32.624;-96.938;2022-07-18T07:07:38;98673.00;;;31.92;53.71
17772;BME280;9010;32.624;-96.938;2022-07-18T07:10:06;98681.63;;;31.88;53.03
17772;BME280;9010;32.624;-96.938;2022-07-18T07:12:45;98681.72;;;31.82;51.35
17772;BME280;9010;32.624;-96.938;2022-07-18T07:15:18;98675.97;;;31.90;51.09
17772;BME280;9010;32.624;-96.938;2022-07-18T07:17:46;98683.31;;;31.90;51.24
17772;BME280;9010;32.624;-96.938;2022-07-18T07:20:15;98680.41;;;31.84;52.06
17772;BME280;9010;32.624;-96.938;2022-07-18T07:22:48;98679.81;;;31.82;53.88
17772;BME280;9010;32.624;-96.938;2022-07-18T07:25:17;98679.81;;;31.82;52.78
17772;BME280;9010;32.624;-96.938;2022-07-18T07:27:45;98684.34;;;31.88;52.10
17772;BME280;9010;32.624;-96.938;2022-07-18T07:30:15;98688.13;;;31.87;53.11
17772;BME280;9010;32.624;-96.938;2022-07-18T07:39:27;98695.63;;;31.74;54.75
17772;BME280;9010;32.624;-96.938;2022-07-18T07:41:55;98697.44;;;31.80;54.71
17772;BME280;9010;32.624;-96.938;2022-07-18T07:44:23;98694.78;;;31.73;55.38
17772;BME280;9010;32.624;-96.938;2022-07-18T07:46:53;98700.69;;;31.70;55.43
17772;BME280;9010;32.624;-96.938;2022-07-18T07:49:21;98710.13;;;31.68;55.83
17772;BME280;9010;32.624;-96.938;2022-07-18T07:51:50;98702.44;;;31.65;56.37
17772;BME280;9010;32.624;-96.938;2022-07-18T07:54:18;98705.84;;;31.60;57.58
17772;BME280;9010;32.624;-96.938;2022-07-18T07:56:46;98711.28;;;31.60;57.11
17772;BME280;9010;32.624;-96.938;2022-07-18T07:59:14;98712.78;;;31.56;58.56
17772;BME280;9010;32.624;-96.938;2022-07-18T08:01:42;98697.53;;;31.55;58.46
17772;BME280;9010;32.624;-96.938;2022-07-18T08:04:12;98708.03;;;31.52;59.46
17772;BME280;9010;32.624;-96.938;2022-07-18T08:06:40;98704.75;;;31.43;60.16
17772;BME280;9010;32.624;-96.938;2022-07-18T08:09:09;98708.72;;;31.47;60.34
17772;BME280;9010;32.624;-96.938;2022-07-18T08:11:37;98712.91;;;31.43;62.07
17772;BME280;9010;32.624;-96.938;2022-07-18T08:14:05;98711.69;;;31.39;62.14
17772;BME280;9010;32.624;-96.938;2022-07-18T08:16:33;98714.06;;;31.36;62.23
17772;BME280;9010;32.624;-96.938;2022-07-18T08:19:02;98720.53;;;31.35;62.42
17772;BME280;9010;32.624;-96.938;2022-07-18T08:21:31;98726.03;;;31.28;63.41
17772;BME280;9010;32.624;-96.938;2022-07-18T08:24:00;98718.31;;;31.25;63.18
17772;BME280;9010;32.624;-96.938;2022-07-18T08:26:28;98725.50;;;31.19;63.55
17772;BME280;9010;32.624;-96.938;2022-07-18T08:28:56;98721.03;;;31.25;63.41
17772;BME280;9010;32.624;-96.938;2022-07-18T08:31:25;98715.16;;;31.28;63.69
17772;BME280;9010;32.624;-96.938;2022-07-18T08:37:17;98724.44;;;31.20;64.36
17772;BME280;9010;32.624;-96.938;2022-07-18T08:39:45;98715.38;;;31.08;64.83
17772;BME280;9010;32.624;-96.938;2022-07-18T08:42:15;98724.81;;;31.06;64.76
17772;BME280;9010;32.624;-96.938;2022-07-18T08:44:44;98725.88;;;31.05;65.34
17772;BME280;9010;32.624;-96.938;2022-07-18T08:47:12;98728.41;;;31.00;65.51
17772;BME280;9010;32.624;-96.938;2022-07-18T08:49:41;98726.97;;;30.97;66.32
17772;BME280;9010;32.624;-96.938;2022-07-18T08:52:10;98723.41;;;30.97;66.09
17772;BME280;9010;32.624;-96.938;2022-07-18T08:54:40;98728.06;;;30.90;66.68
17772;BME280;9010;32.624;-96.938;2022-07-18T08:57:08;98719.25;;;30.94;66.71
17772;BME280;9010;32.624;-96.938;2022-07-18T08:59:37;98722.47;;;30.85;66.92
17772;BME280;9010;32.624;-96.938;2022-07-18T09:02:06;98717.50;;;30.82;67.34
17772;BME280;9010;32.624;-96.938;2022-07-18T09:04:36;98718.38;;;30.75;67.93
17772;BME280;9010;32.624;-96.938;2022-07-18T09:07:04;98725.72;;;30.68;68.40
17772;BME280;9010;32.624;-96.938;2022-07-18T09:09:35;98727.41;;;30.69;68.66
17772;BME280;9010;32.624;-96.938;2022-07-18T09:12:06;98735.53;;;30.69;68.60
17772;BME280;9010;32.624;-96.938;2022-07-18T09:14:36;98730.56;;;30.66;69.31
17772;BME280;9010;32.624;-96.938;2022-07-18T09:17:08;98724.72;;;30.63;69.40
17772;BME280;9010;32.624;-96.938;2022-07-18T09:19:37;98724.38;;;30.59;69.49
17772;BME280;9010;32.624;-96.938;2022-07-18T09:22:14;98720.63;;;30.54;70.07
17772;BME280;9010;32.624;-96.938;2022-07-18T09:25:00;98730.22;;;30.56;70.06
17772;BME280;9010;32.624;-96.938;2022-07-18T09:27:33;98733.59;;;30.52;70.73
17772;BME280;9010;32.624;-96.938;2022-07-18T09:30:23;98742.78;;;30.51;70.81
17772;BME280;9010;32.624;-96.938;2022-07-18T09:32:54;98731.09;;;30.50;70.55
17772;BME280;9010;32.624;-96.938;2022-07-18T09:35:24;98736.56;;;30.44;71.05
17772;BME280;9010;32.624;-96.938;2022-07-18T09:37:59;98742.84;;;30.44;71.26
17772;BME280;9010;32.624;-96.938;2022-07-18T09:40:30;98738.25;;;30.45;72.42
17772;BME280;9010;32.624;-96.938;2022-07-18T09:43:02;98734.09;;;30.36;72.15
17772;BME280;9010;32.624;-96.938;2022-07-18T09:45:32;98739.50;;;30.36;71.97
17772;BME280;9010;32.624;-96.938;2022-07-18T09:48:02;98737.09;;;30.21;72.99
17772;BME280;9010;32.624;-96.938;2022-07-18T09:50:33;98741.66;;;30.27;72.22
17772;BME280;9010;32.624;-96.938;2022-07-18T09:53:10;98751.69;;;30.20;73.03
17772;BME280;9010;32.624;-96.938;2022-07-18T09:55:44;98759.06;;;30.13;74.00
17772;BME280;9010;32.624;-96.938;2022-07-18T09:58:17;98758.03;;;30.07;74.62
17772;BME280;9010;32.624;-96.938;2022-07-18T10:00:47;98765.34;;;30.07;75.02
17772;BME280;9010;32.624;-96.938;2022-07-18T10:03:16;98762.66;;;30.00;76.43
17772;BME280;9010;32.624;-96.938;2022-07-18T10:05:46;98773.50;;;30.00;74.23
17772;BME280;9010;32.624;-96.938;2022-07-18T10:08:16;98771.84;;;29.99;74.88
17772;BME280;9010;32.624;-96.938;2022-07-18T10:10:46;98767.31;;;29.87;78.44
17772;BME280;9010;32.624;-96.938;2022-07-18T10:13:16;98784.00;;;29.84;81.03
17772;BME280;9010;32.624;-96.938;2022-07-18T10:15:46;98775.28;;;29.69;80.12
17772;BME280;9010;32.624;-96.938;2022-07-18T10:18:16;98774.22;;;29.63;79.18
17772;BME280;9010;32.624;-96.938;2022-07-18T10:20:47;98779.94;;;29.48;82.83
17772;BME280;9010;32.624;-96.938;2022-07-18T10:23:18;98771.97;;;29.53;83.63
17772;BME280;9010;32.624;-96.938;2022-07-18T10:26:10;98772.84;;;29.41;81.87
17772;BME280;9010;32.624;-96.938;2022-07-18T10:29:12;98770.34;;;29.26;83.02
17772;BME280;9010;32.624;-96.938;2022-07-18T10:32:00;98774.13;;;29.32;81.16
17772;BME280;9010;32.624;-96.938;2022-07-18T10:34:32;98778.06;;;29.36;80.42
17772;BME280;9010;32.624;-96.938;2022-07-18T10:37:10;98778.25;;;29.41;79.11
17772;BME280;9010;32.624;-96.938;2022-07-18T10:39:40;98775.59;;;29.34;81.93
17772;BME280;9010;32.624;-96.938;2022-07-18T10:42:16;98776.63;;;29.33;80.70
17772;BME280;9010;32.624;-96.938;2022-07-18T10:44:47;98777.88;;;29.24;82.30
17772;BME280;9010;32.624;-96.938;2022-07-18T10:47:17;98781.81;;;29.22;81.75
17772;BME280;9010;32.624;-96.938;2022-07-18T10:50:07;98777.41;;;29.21;82.30
17772;BME280;9010;32.624;-96.938;2022-07-18T10:52:57;98781.19;;;29.20;81.79
17772;BME280;9010;32.624;-96.938;2022-07-18T11:01:10;98783.47;;;29.16;82.37
17772;BME280;9010;32.624;-96.938;2022-07-18T11:03:40;98788.06;;;29.16;82.49
17772;BME280;9010;32.624;-96.938;2022-07-18T11:06:09;98791.81;;;29.15;81.57
17772;BME280;9010;32.624;-96.938;2022-07-18T11:08:38;98795.97;;;29.11;84.03
17772;BME280;9010;32.624;-96.938;2022-07-18T11:14:10;98804.09;;;29.04;83.56
17772;BME280;9010;32.624;-96.938;2022-07-18T11:20:23;98813.88;;;28.98;84.72
17772;BME280;9010;32.624;-96.938;2022-07-18T11:22:51;98804.94;;;28.98;83.41
17772;BME280;9010;32.624;-96.938;2022-07-18T11:25:19;98816.16;;;28.95;84.07
17772;BME280;9010;32.624;-96.938;2022-07-18T11:27:48;98828.69;;;28.96;82.30
17772;BME280;9010;32.624;-96.938;2022-07-18T11:30:20;98834.06;;;28.89;85.30
17772;BME280;9010;32.624;-96.938;2022-07-18T11:32:50;98838.69;;;28.89;84.12
17772;BME280;9010;32.624;-96.938;2022-07-18T11:35:23;98839.94;;;28.86;84.24
17772;BME280;9010;32.624;-96.938;2022-07-18T11:37:52;98839.94;;;28.86;84.31
17772;BME280;9010;32.624;-96.938;2022-07-18T11:40:22;98843.03;;;28.90;83.57
17772;BME280;9010;32.624;-96.938;2022-07-18T11:42:50;98838.66;;;28.82;84.61
17772;BME280;9010;32.624;-96.938;2022-07-18T11:45:18;98846.97;;;28.81;85.65
17772;BME280;9010;32.624;-96.938;2022-07-18T11:47:52;98851.75;;;28.79;84.73
17772;BME280;9010;32.624;-96.938;2022-07-18T11:50:34;98841.34;;;28.76;84.28
17772;BME280;9010;32.624;-96.938;2022-07-18T11:53:02;98848.63;;;28.75;85.95
17772;BME280;9010;32.624;-96.938;2022-07-18T11:55:35;98839.06;;;28.79;83.94
17772;BME280;9010;32.624;-96.938;2022-07-18T11:58:07;98836.59;;;28.78;83.94
17772;BME280;9010;32.624;-96.938;2022-07-18T12:00:36;98839.28;;;28.78;84.62
17772;BME280;9010;32.624;-96.938;2022-07-18T12:03:11;98843.66;;;28.79;84.16
17772;BME280;9010;32.624;-96.938;2022-07-18T12:05:41;98842.00;;;28.78;85.67
17772;BME280;9010;32.624;-96.938;2022-07-18T12:08:33;98842.00;;;28.78;83.64
17772;BME280;9010;32.624;-96.938;2022-07-18T12:11:14;98839.28;;;28.78;83.94
17772;BME280;9010;32.624;-96.938;2022-07-18T12:13:46;98847.81;;;28.75;84.60
17772;BME280;9010;32.624;-96.938;2022-07-18T12:16:23;98849.47;;;28.76;84.58
17772;BME280;9010;32.624;-96.938;2022-07-18T12:18:54;98843.63;;;28.72;84.30
17772;BME280;9010;32.624;-96.938;2022-07-18T12:21:23;98847.41;;;28.78;83.52
17772;BME280;9010;32.624;-96.938;2022-07-18T12:23:51;98842.63;;;28.80;83.37
17772;BME280;9010;32.624;-96.938;2022-07-18T12:26:30;98850.34;;;28.83;83.74
17772;BME280;9010;32.624;-96.938;2022-07-18T12:29:06;98854.69;;;28.84;82.30
17772;BME280;9010;32.624;-96.938;2022-07-18T12:31:39;98857.41;;;28.90;82.63
17772;BME280;9010;32.624;-96.938;2022-07-18T12:34:10;98882.00;;;28.89;83.75
17772;BME280;9010;32.624;-96.938;2022-07-18T12:36:51;98884.28;;;28.92;82.59
17772;BME280;9010;32.624;-96.938;2022-07-18T12:39:27;98879.50;;;28.94;82.77
17772;BME280;9010;32.624;-96.938;2022-07-18T12:41:57;98867.41;;;28.83;84.33
17772;BME280;9010;32.624;-96.938;2022-07-18T12:44:25;98896.78;;;28.99;84.12
17772;BME280;9010;32.624;-96.938;2022-07-18T12:46:54;98895.94;;;28.99;83.55
17772;BME280;9010;32.624;-96.938;2022-07-18T12:49:24;98897.63;;;29.00;83.92
17772;BME280;9010;32.624;-96.938;2022-07-18T12:51:52;98893.44;;;29.04;83.00
17772;BME280;9010;32.624;-96.938;2022-07-18T12:54:20;98897.63;;;29.00;83.36
17772;BME280;9010;32.624;-96.938;2022-07-18T12:56:49;98902.81;;;29.01;83.20
17772;BME280;9010;32.624;-96.938;2022-07-18T12:59:17;98903.66;;;29.02;83.19
17772;BME280;9010;32.624;-96.938;2022-07-18T13:01:45;98907.22;;;29.02;82.61
17772;BME280;9010;32.624;-96.938;2022-07-18T13:04:13;98918.47;;;29.06;81.51
17772;BME280;9010;32.624;-96.938;2022-07-18T13:06:43;98916.38;;;29.08;83.09
17772;BME280;9010;32.624;-96.938;2022-07-18T13:09:11;98920.34;;;29.19;81.51
17772;BME280;9010;32.624;-96.938;2022-07-18T13:11:39;98924.13;;;29.24;81.39
17772;BME280;9010;32.624;-96.938;2022-07-18T13:14:12;98920.81;;;29.22;81.67
17772;BME280;9010;32.624;-96.938;2022-07-18T13:16:42;98902.00;;;29.21;80.21
17772;BME280;9010;32.624;-96.938;2022-07-18T13:19:11;98906.84;;;29.32;81.08
17772;BME280;9010;32.624;-96.938;2022-07-18T13:21:39;98899.94;;;29.29;81.96
17772;BME280;9010;32.624;-96.938;2022-07-18T13:24:09;98911.22;;;29.39;81.79
17772;BME280;9010;32.624;-96.938;2022-07-18T13:26:39;98918.28;;;29.40;82.16
17772;BME280;9010;32.624;-96.938;2022-07-18T13:29:07;98914.53;;;29.41;82.73